createdAt,value
2018-03-24T00:00:00.239Z,997.8
2018-03-24T00:01:02.945Z,997.8
2018-03-24T00:02:05.311Z,997.8
2018-03-24T00:03:07.681Z,997.8
2018-03-24T00:04:10.102Z,997.8
2018-03-24T00:05:12.816Z,997.8
2018-03-24T00:06:15.180Z,997.8
2018-03-24T00:07:17.800Z,997.7
2018-03-24T00:08:20.462Z,997.7
2018-03-24T00:09:22.912Z,997.8
2018-03-24T00:10:25.614Z,997.7
2018-03-24T00:11:28.276Z,997.7
2018-03-24T00:12:31.008Z,997.7
2018-03-24T00:13:33.888Z,997.8
2018-03-24T00:14:36.304Z,997.7
2018-03-24T00:15:38.674Z,997.7
2018-03-24T00:16:41.171Z,997.7
2018-03-24T00:17:43.540Z,997.7
2018-03-24T00:18:45.926Z,997.7
2018-03-24T00:19:48.309Z,997.8
2018-03-24T00:20:51.001Z,997.8
2018-03-24T00:21:53.377Z,997.8
2018-03-24T00:22:55.740Z,997.8
2018-03-24T00:23:58.543Z,997.8
2018-03-24T00:25:00.947Z,997.8
2018-03-24T00:26:03.594Z,997.8
2018-03-24T00:27:05.975Z,997.8
2018-03-24T00:28:08.433Z,997.8
2018-03-24T00:29:10.801Z,997.8
2018-03-24T00:30:13.180Z,997.8
2018-03-24T00:31:15.836Z,997.8
2018-03-24T00:32:18.199Z,997.7
2018-03-24T00:33:20.872Z,997.8
2018-03-24T00:34:23.235Z,997.8
2018-03-24T00:35:25.601Z,997.8
2018-03-24T00:36:27.977Z,997.8
2018-03-24T00:37:30.357Z,997.8
2018-03-24T00:38:32.780Z,997.9
2018-03-24T00:39:35.435Z,997.8
2018-03-24T00:40:37.812Z,997.8
2018-03-24T00:41:40.187Z,997.8
2018-03-24T00:42:42.854Z,997.8
2018-03-24T00:43:45.613Z,997.8
2018-03-24T00:44:48.251Z,997.8
2018-03-24T00:45:50.631Z,997.8
2018-03-24T00:46:52.997Z,997.8
2018-03-24T00:47:55.664Z,997.8
2018-03-24T00:48:58.031Z,997.8
2018-03-24T00:50:00.409Z,997.8
2018-03-24T00:51:03.066Z,997.8
2018-03-24T00:52:05.440Z,997.8
2018-03-24T00:53:08.162Z,997.8
2018-03-24T00:54:10.539Z,997.8
2018-03-24T00:55:12.916Z,997.8
2018-03-24T00:56:15.290Z,997.8
2018-03-24T00:57:17.673Z,997.8
2018-03-24T00:58:20.071Z,997.8
2018-03-24T00:59:22.442Z,997.8
2018-03-24T01:00:24.813Z,997.8
2018-03-24T01:01:27.474Z,997.8
2018-03-24T01:02:29.909Z,997.8
2018-03-24T01:03:32.838Z,997.8
2018-03-24T01:04:35.217Z,997.8
2018-03-24T01:05:37.599Z,997.8
2018-03-24T01:06:40.250Z,997.8
2018-03-24T01:07:42.913Z,997.8
2018-03-24T01:08:45.293Z,997.8
2018-03-24T01:09:47.662Z,997.8
2018-03-24T01:10:50.132Z,997.7
2018-03-24T01:11:52.506Z,997.8
2018-03-24T01:12:54.878Z,997.8
2018-03-24T01:13:57.253Z,997.8
2018-03-24T01:14:59.632Z,997.8
2018-03-24T01:16:01.988Z,997.7
2018-03-24T01:17:04.369Z,997.7
2018-03-24T01:18:06.742Z,997.8
2018-03-24T01:19:09.115Z,997.7
2018-03-24T01:20:11.495Z,997.7
2018-03-24T01:21:14.204Z,997.7
2018-03-24T01:22:16.570Z,997.7
2018-03-24T01:23:19.248Z,997.7
2018-03-24T01:24:21.719Z,997.7
2018-03-24T01:25:24.678Z,997.7
2018-03-24T01:26:27.049Z,997.7
2018-03-24T01:27:29.411Z,997.7
2018-03-24T01:28:31.784Z,997.7
2018-03-24T01:29:34.159Z,997.6
2018-03-24T01:30:36.578Z,997.7
2018-03-24T01:31:38.959Z,997.7
2018-03-24T01:32:41.330Z,997.7
2018-03-24T01:33:44.005Z,997.7
2018-03-24T01:34:46.692Z,997.7
2018-03-24T01:35:49.346Z,997.7
2018-03-24T01:36:52.009Z,997.7
2018-03-24T01:37:54.383Z,997.7
2018-03-24T01:38:56.752Z,997.7
2018-03-24T01:39:59.409Z,997.6
2018-03-24T01:41:01.776Z,997.6
2018-03-24T01:42:04.448Z,997.6
2018-03-24T01:43:06.823Z,997.6
2018-03-24T01:44:09.201Z,997.6
2018-03-24T01:45:11.566Z,997.5
2018-03-24T01:46:13.949Z,997.5
2018-03-24T01:47:16.330Z,997.5
2018-03-24T01:48:18.703Z,997.5
2018-03-24T01:49:21.067Z,997.5
2018-03-24T01:50:23.446Z,997.5
2018-03-24T01:51:25.818Z,997.5
2018-03-24T01:52:28.481Z,997.5
2018-03-24T01:53:30.963Z,997.5
2018-03-24T01:54:33.320Z,997.5
2018-03-24T01:55:35.693Z,997.5
2018-03-24T01:56:38.075Z,997.5
2018-03-24T01:57:40.439Z,997.5
2018-03-24T01:58:43.118Z,997.5
2018-03-24T01:59:45.482Z,997.5
2018-03-24T02:00:47.860Z,997.5
2018-03-24T02:01:50.238Z,997.5
2018-03-24T02:02:52.625Z,997.5
2018-03-24T02:03:55.263Z,997.5
2018-03-24T02:04:57.635Z,997.5
2018-03-24T02:06:00.306Z,997.4
2018-03-24T02:07:02.668Z,997.4
2018-03-24T02:08:05.045Z,997.5
2018-03-24T02:09:07.418Z,997.4
2018-03-24T02:10:09.790Z,997.4
2018-03-24T02:11:12.165Z,997.4
2018-03-24T02:12:14.656Z,997.4
2018-03-24T02:13:17.310Z,997.3
2018-03-24T02:14:19.697Z,997.3
2018-03-24T02:15:22.071Z,997.3
2018-03-24T02:16:24.770Z,997.3
2018-03-24T02:17:27.490Z,997.3
2018-03-24T02:18:29.868Z,997.3
2018-03-24T02:19:32.515Z,997.3
2018-03-24T02:20:35.184Z,997.3
2018-03-24T02:21:37.837Z,997.3
2018-03-24T02:22:40.219Z,997.3
2018-03-24T02:23:42.585Z,997.3
2018-03-24T02:24:44.957Z,997.3
2018-03-24T02:25:47.322Z,997.3
2018-03-24T02:26:49.978Z,997.3
2018-03-24T02:27:52.346Z,997.3
2018-03-24T02:28:54.720Z,997.3
2018-03-24T02:29:57.096Z,997.3
2018-03-24T02:30:59.836Z,997.3
2018-03-24T02:32:02.206Z,997.3
2018-03-24T02:33:04.586Z,997.3
2018-03-24T02:34:06.964Z,997.3
2018-03-24T02:35:09.341Z,997.3
2018-03-24T02:36:11.712Z,997.3
2018-03-24T02:37:14.083Z,997.2
2018-03-24T02:38:16.454Z,997.2
2018-03-24T02:39:18.823Z,997.3
2018-03-24T02:40:21.545Z,997.3
2018-03-24T02:41:23.924Z,997.3
2018-03-24T02:42:26.292Z,997.2
2018-03-24T02:43:28.665Z,997.3
2018-03-24T02:44:31.042Z,997.3
2018-03-24T02:45:33.415Z,997.3
2018-03-24T02:46:35.786Z,997.3
2018-03-24T02:47:38.453Z,997.3
2018-03-24T02:48:40.820Z,997.3
2018-03-24T02:49:43.286Z,997.3
2018-03-24T02:50:45.665Z,997.3
2018-03-24T02:51:48.318Z,997.3
2018-03-24T02:52:50.691Z,997.3
2018-03-24T02:53:53.068Z,997.3
2018-03-24T02:54:55.737Z,997.3
2018-03-24T02:55:58.408Z,997.3
2018-03-24T02:57:01.354Z,997.3
2018-03-24T02:58:03.724Z,997.3
2018-03-24T02:59:06.192Z,997.3
2018-03-24T03:00:08.572Z,997.3
2018-03-24T03:01:10.941Z,997.3
2018-03-24T03:02:13.327Z,997.3
2018-03-24T03:03:15.808Z,997.3
2018-03-24T03:04:18.485Z,997.3
2018-03-24T03:05:21.172Z,997.3
2018-03-24T03:06:23.850Z,997.3
2018-03-24T03:07:26.513Z,997.3
2018-03-24T03:08:28.894Z,997.2
2018-03-24T03:09:31.269Z,997.3
2018-03-24T03:10:33.642Z,997.3
2018-03-24T03:11:36.306Z,997.3
2018-03-24T03:12:38.671Z,997.3
2018-03-24T03:13:41.727Z,997.2
2018-03-24T03:14:44.236Z,997.3
2018-03-24T03:15:46.608Z,997.2
2018-03-24T03:16:48.978Z,997.2
2018-03-24T03:17:51.361Z,997.3
2018-03-24T03:18:53.730Z,997.2
2018-03-24T03:19:56.115Z,997.3
2018-03-24T03:20:58.485Z,997.3
2018-03-24T03:22:00.856Z,997.3
2018-03-24T03:23:03.236Z,997.3
2018-03-24T03:24:05.616Z,997.3
2018-03-24T03:25:07.999Z,997.3
2018-03-24T03:26:10.384Z,997.3
2018-03-24T03:27:13.026Z,997.3
2018-03-24T03:28:15.399Z,997.3
2018-03-24T03:29:17.786Z,997.3
2018-03-24T03:30:20.152Z,997.3
2018-03-24T03:31:22.528Z,997.3
2018-03-24T03:32:25.191Z,997.3
2018-03-24T03:33:27.606Z,997.3
2018-03-24T03:34:29.986Z,997.3
2018-03-24T03:35:32.361Z,997.3
2018-03-24T03:36:34.825Z,997.3
2018-03-24T03:37:37.196Z,997.3
2018-03-24T03:38:39.584Z,997.3
2018-03-24T03:39:42.182Z,997.3
2018-03-24T03:40:44.547Z,997.3
2018-03-24T03:41:46.919Z,997.3
2018-03-24T03:42:49.272Z,997.3
2018-03-24T03:43:51.654Z,997.3
2018-03-24T03:44:54.032Z,997.3
2018-03-24T03:45:56.670Z,997.3
2018-03-24T03:46:59.050Z,997.3
2018-03-24T03:48:01.416Z,997.3
2018-03-24T03:49:03.796Z,997.3
2018-03-24T03:50:06.171Z,997.3
2018-03-24T03:51:08.536Z,997.3
2018-03-24T03:52:10.908Z,997.3
2018-03-24T03:53:13.362Z,997.3
2018-03-24T03:54:15.742Z,997.3
2018-03-24T03:55:18.099Z,997.3
2018-03-24T03:56:20.497Z,997.3
2018-03-24T03:57:22.864Z,997.3
2018-03-24T03:58:25.245Z,997.3
2018-03-24T03:59:27.653Z,997.3
2018-03-24T04:00:30.302Z,997.3
2018-03-24T04:01:32.961Z,997.3
2018-03-24T04:02:35.346Z,997.3
2018-03-24T04:03:37.719Z,997.3
2018-03-24T04:04:40.372Z,997.3
2018-03-24T04:05:42.748Z,997.3
2018-03-24T04:06:45.694Z,997.3
2018-03-24T04:07:48.057Z,997.3
2018-03-24T04:08:50.438Z,997.3
2018-03-24T04:09:52.818Z,997.3
2018-03-24T04:10:55.182Z,997.3
2018-03-24T04:11:57.557Z,997.3
2018-03-24T04:12:59.930Z,997.3
2018-03-24T04:14:02.309Z,997.2
2018-03-24T04:15:05.255Z,997.3
2018-03-24T04:16:07.635Z,997.3
2018-03-24T04:17:09.995Z,997.3
2018-03-24T04:18:12.384Z,997.3
2018-03-24T04:19:14.740Z,997.4
2018-03-24T04:20:17.130Z,997.3
2018-03-24T04:21:19.499Z,997.4
2018-03-24T04:22:21.871Z,997.3
2018-03-24T04:23:24.279Z,997.3
2018-03-24T04:24:26.652Z,997.3
2018-03-24T04:25:29.037Z,997.4
2018-03-24T04:26:31.433Z,997.3
2018-03-24T04:27:33.777Z,997.3
2018-03-24T04:28:36.150Z,997.3
2018-03-24T04:29:38.519Z,997.3
2018-03-24T04:30:40.894Z,997.3
2018-03-24T04:31:43.259Z,997.4
2018-03-24T04:32:45.654Z,997.4
2018-03-24T04:33:48.037Z,997.3
2018-03-24T04:34:50.418Z,997.3
2018-03-24T04:35:52.781Z,997.4
2018-03-24T04:36:55.151Z,997.4
2018-03-24T04:37:57.527Z,997.4
2018-03-24T04:38:59.896Z,997.4
2018-03-24T04:40:02.569Z,997.5
2018-03-24T04:41:05.203Z,997.4
2018-03-24T04:42:07.573Z,997.4
2018-03-24T04:43:09.965Z,997.5
2018-03-24T04:44:12.338Z,997.5
2018-03-24T04:45:15.272Z,997.4
2018-03-24T04:46:17.653Z,997.5
2018-03-24T04:47:20.015Z,997.5
2018-03-24T04:48:22.388Z,997.4
2018-03-24T04:49:24.761Z,997.5
2018-03-24T04:50:27.132Z,997.5
2018-03-24T04:51:29.792Z,997.5
2018-03-24T04:52:32.269Z,997.4
2018-03-24T04:53:34.941Z,997.5
2018-03-24T04:54:37.347Z,997.5
2018-03-24T04:55:39.726Z,997.5
2018-03-24T04:56:42.102Z,997.5
2018-03-24T04:57:44.546Z,997.5
2018-03-24T04:58:46.917Z,997.5
2018-03-24T04:59:49.882Z,997.5
2018-03-24T05:00:52.540Z,997.5
2018-03-24T05:01:55.258Z,997.5
2018-03-24T05:02:58.213Z,997.5
2018-03-24T05:04:00.612Z,997.5
2018-03-24T05:05:02.964Z,997.4
2018-03-24T05:06:05.334Z,997.5
2018-03-24T05:07:07.698Z,997.5
2018-03-24T05:08:10.075Z,997.5
2018-03-24T05:09:12.458Z,997.5
2018-03-24T05:10:15.411Z,997.4
2018-03-24T05:11:17.775Z,997.4
2018-03-24T05:12:20.147Z,997.5
2018-03-24T05:13:22.535Z,997.5
2018-03-24T05:14:24.908Z,997.5
2018-03-24T05:15:27.273Z,997.5
2018-03-24T05:16:29.707Z,997.5
2018-03-24T05:17:32.092Z,997.5
2018-03-24T05:18:34.452Z,997.5
2018-03-24T05:19:36.829Z,997.5
2018-03-24T05:20:39.475Z,997.6
2018-03-24T05:21:41.850Z,997.6
2018-03-24T05:22:44.424Z,997.6
2018-03-24T05:23:46.798Z,997.6
2018-03-24T05:24:49.165Z,997.6
2018-03-24T05:25:51.828Z,997.6
2018-03-24T05:26:54.510Z,997.6
2018-03-24T05:27:56.876Z,997.6
2018-03-24T05:28:59.250Z,997.6
2018-03-24T05:30:01.632Z,997.6
2018-03-24T05:31:04.587Z,997.7
2018-03-24T05:32:07.258Z,997.7
2018-03-24T05:33:09.614Z,997.6
2018-03-24T05:34:11.980Z,997.6
2018-03-24T05:35:14.350Z,997.6
2018-03-24T05:36:16.714Z,997.6
2018-03-24T05:37:19.370Z,997.7
2018-03-24T05:38:21.747Z,997.7
2018-03-24T05:39:24.113Z,997.6
2018-03-24T05:40:26.783Z,997.6
2018-03-24T05:41:29.444Z,997.6
2018-03-24T05:42:32.110Z,997.7
2018-03-24T05:43:34.755Z,997.6
2018-03-24T05:44:37.129Z,997.7
2018-03-24T05:45:39.775Z,997.7
2018-03-24T05:46:42.142Z,997.7
2018-03-24T05:47:44.507Z,997.7
2018-03-24T05:48:47.164Z,997.7
2018-03-24T05:49:49.812Z,997.7
2018-03-24T05:50:52.187Z,997.7
2018-03-24T05:51:54.547Z,997.7
2018-03-24T05:52:56.926Z,997.7
2018-03-24T05:53:59.307Z,997.7
2018-03-24T05:55:01.681Z,997.7
2018-03-24T05:56:04.340Z,997.8
2018-03-24T05:57:06.712Z,997.7
2018-03-24T05:58:09.076Z,997.7
2018-03-24T05:59:11.467Z,997.8
2018-03-24T06:00:13.835Z,997.8
2018-03-24T06:01:16.194Z,997.8
2018-03-24T06:02:18.577Z,997.8
2018-03-24T06:03:20.951Z,997.8
2018-03-24T06:04:23.309Z,997.8
2018-03-24T06:05:25.962Z,997.8
2018-03-24T06:06:28.351Z,997.8
2018-03-24T06:07:31.003Z,997.8
2018-03-24T06:08:33.376Z,997.8
2018-03-24T06:09:35.751Z,997.8
2018-03-24T06:10:38.160Z,997.8
2018-03-24T06:11:40.488Z,997.8
2018-03-24T06:12:42.859Z,997.8
2018-03-24T06:13:45.223Z,997.8
2018-03-24T06:14:47.590Z,997.8
2018-03-24T06:15:50.248Z,997.8
2018-03-24T06:16:52.900Z,997.8
2018-03-24T06:17:55.271Z,997.8
2018-03-24T06:18:58.243Z,997.8
2018-03-24T06:20:00.620Z,997.8
2018-03-24T06:21:02.996Z,997.8
2018-03-24T06:22:05.438Z,997.8
2018-03-24T06:23:08.120Z,997.8
2018-03-24T06:24:10.501Z,997.8
2018-03-24T06:25:12.879Z,997.8
2018-03-24T06:26:15.531Z,997.8
2018-03-24T06:27:18.181Z,997.8
2018-03-24T06:28:20.556Z,997.8
2018-03-24T06:29:23.498Z,997.8
2018-03-24T06:30:25.872Z,997.8
2018-03-24T06:31:28.249Z,997.8
2018-03-24T06:32:30.901Z,997.8
2018-03-24T06:33:33.280Z,997.8
2018-03-24T06:34:35.647Z,997.8
2018-03-24T06:35:38.022Z,997.8
2018-03-24T06:36:40.404Z,997.8
2018-03-24T06:37:42.765Z,997.8
2018-03-24T06:38:45.421Z,997.8
2018-03-24T06:39:47.810Z,997.8
2018-03-24T06:40:50.180Z,997.9
2018-03-24T06:41:52.548Z,997.9
2018-03-24T06:42:54.929Z,997.9
2018-03-24T06:43:57.301Z,997.9
2018-03-24T06:44:59.702Z,997.9
2018-03-24T06:46:02.057Z,997.9
2018-03-24T06:47:04.713Z,997.9
2018-03-24T06:48:07.087Z,997.9
2018-03-24T06:49:09.476Z,997.9
2018-03-24T06:50:11.853Z,997.9
2018-03-24T06:51:14.504Z,997.9
2018-03-24T06:52:16.877Z,998
2018-03-24T06:53:19.256Z,997.9
2018-03-24T06:54:22.472Z,997.9
2018-03-24T06:55:24.855Z,998
2018-03-24T06:56:27.204Z,997.9
2018-03-24T06:57:29.874Z,997.9
2018-03-24T06:58:32.265Z,997.9
2018-03-24T06:59:34.634Z,998
2018-03-24T07:00:37.031Z,998
2018-03-24T07:01:39.395Z,998
2018-03-24T07:02:41.778Z,998
2018-03-24T07:03:44.132Z,997.9
2018-03-24T07:04:46.791Z,998
2018-03-24T07:05:49.168Z,998
2018-03-24T07:06:51.539Z,998
2018-03-24T07:07:53.920Z,998
2018-03-24T07:08:56.291Z,998.1
2018-03-24T07:09:58.659Z,998
2018-03-24T07:11:01.350Z,998.1
2018-03-24T07:12:03.722Z,998
2018-03-24T07:13:06.104Z,998.1
2018-03-24T07:14:08.474Z,998.1
2018-03-24T07:15:10.852Z,998.2
2018-03-24T07:16:13.230Z,998.1
2018-03-24T07:17:15.606Z,998.2
2018-03-24T07:18:17.977Z,998.2
2018-03-24T07:19:20.364Z,998.1
2018-03-24T07:20:22.736Z,998.2
2018-03-24T07:21:25.117Z,998.1
2018-03-24T07:22:27.484Z,998.2
2018-03-24T07:23:29.872Z,998.2
2018-03-24T07:24:32.242Z,998.2
2018-03-24T07:25:34.901Z,998.2
2018-03-24T07:26:37.846Z,998.2
2018-03-24T07:27:40.229Z,998.3
2018-03-24T07:28:42.606Z,998.2
2018-03-24T07:29:44.986Z,998.2
2018-03-24T07:30:47.368Z,998.3
2018-03-24T07:31:49.726Z,998.3
2018-03-24T07:32:52.099Z,998.3
2018-03-24T07:33:54.477Z,998.3
2018-03-24T07:34:56.860Z,998.3
2018-03-24T07:35:59.535Z,998.3
2018-03-24T07:37:01.905Z,998.2
2018-03-24T07:38:04.275Z,998.3
2018-03-24T07:39:06.947Z,998.3
2018-03-24T07:40:09.330Z,998.3
2018-03-24T07:41:11.698Z,998.3
2018-03-24T07:42:14.346Z,998.3
2018-03-24T07:43:16.724Z,998.3
2018-03-24T07:44:19.095Z,998.3
2018-03-24T07:45:21.479Z,998.3
2018-03-24T07:46:23.836Z,998.3
2018-03-24T07:47:26.220Z,998.3
2018-03-24T07:48:28.610Z,998.3
2018-03-24T07:49:30.976Z,998.3
2018-03-24T07:50:33.924Z,998.3
2018-03-24T07:51:36.293Z,998.3
2018-03-24T07:52:38.660Z,998.3
2018-03-24T07:53:41.333Z,998.3
2018-03-24T07:54:43.700Z,998.3
2018-03-24T07:55:46.064Z,998.3
2018-03-24T07:56:48.443Z,998.3
2018-03-24T07:57:50.811Z,998.3
2018-03-24T07:58:53.191Z,998.3
2018-03-24T07:59:55.572Z,998.3
2018-03-24T08:00:57.946Z,998.3
2018-03-24T08:02:00.324Z,998.3
2018-03-24T08:03:02.686Z,998.3
2018-03-24T08:04:05.352Z,998.3
2018-03-24T08:05:07.727Z,998.3
2018-03-24T08:06:10.387Z,998.3
2018-03-24T08:07:13.047Z,998.3
2018-03-24T08:08:15.417Z,998.3
2018-03-24T08:09:17.796Z,998.3
2018-03-24T08:10:20.454Z,998.3
2018-03-24T08:11:22.823Z,998.3
2018-03-24T08:12:25.202Z,998.3
2018-03-24T08:13:27.568Z,998.3
2018-03-24T08:14:29.945Z,998.3
2018-03-24T08:15:32.319Z,998.4
2018-03-24T08:16:34.706Z,998.3
2018-03-24T08:17:37.063Z,998.3
2018-03-24T08:18:39.442Z,998.3
2018-03-24T08:19:42.093Z,998.2
2018-03-24T08:20:44.753Z,998.3
2018-03-24T08:21:47.125Z,998.3
2018-03-24T08:22:49.783Z,998.3
2018-03-24T08:23:52.164Z,998.3
2018-03-24T08:24:54.547Z,998.3
2018-03-24T08:25:56.924Z,998.4
2018-03-24T08:26:59.301Z,998.4
2018-03-24T08:28:01.964Z,998.3
2018-03-24T08:29:04.353Z,998.3
2018-03-24T08:30:06.764Z,998.3
2018-03-24T08:31:09.175Z,998.3
2018-03-24T08:32:11.608Z,998.4
2018-03-24T08:33:14.042Z,998.3
2018-03-24T08:34:16.463Z,998.3
2018-03-24T08:35:18.931Z,998.3
2018-03-24T08:36:21.363Z,998.3
2018-03-24T08:37:23.806Z,998.3
2018-03-24T08:38:26.298Z,998.3
2018-03-24T08:39:28.686Z,998.3
2018-03-24T08:40:31.112Z,998.4
2018-03-24T08:41:33.854Z,998.3
2018-03-24T08:42:36.278Z,998.3
2018-03-24T08:43:39.003Z,998.3
2018-03-24T08:44:41.463Z,998.3
2018-03-24T08:45:44.167Z,998.3
2018-03-24T08:46:47.192Z,998.4
2018-03-24T08:47:49.620Z,998.3
2018-03-24T08:48:52.045Z,998.3
2018-03-24T08:49:54.511Z,998.4
2018-03-24T08:50:56.949Z,998.3
2018-03-24T08:51:59.365Z,998.4
2018-03-24T08:53:01.842Z,998.4
2018-03-24T08:54:04.274Z,998.3
2018-03-24T08:55:06.747Z,998.3
2018-03-24T08:56:09.477Z,998.3
2018-03-24T08:57:11.897Z,998.3
2018-03-24T08:58:14.365Z,998.3
2018-03-24T08:59:16.795Z,998.3
2018-03-24T09:00:19.224Z,998.3
2018-03-24T09:01:21.660Z,998.3
2018-03-24T09:02:24.077Z,998.3
2018-03-24T09:03:26.586Z,998.3
2018-03-24T09:04:30.010Z,998.3
2018-03-24T09:05:32.439Z,998.4
2018-03-24T09:06:34.873Z,998.3
2018-03-24T09:07:37.645Z,998.3
2018-03-24T09:08:40.070Z,998.3
2018-03-24T09:09:42.507Z,998.3
2018-03-24T09:10:44.928Z,998.3
2018-03-24T09:11:47.648Z,998.3
2018-03-24T09:12:50.089Z,998.3
2018-03-24T09:13:52.536Z,998.2
2018-03-24T09:14:54.966Z,998.2
2018-03-24T09:15:57.687Z,998.3
2018-03-24T09:17:00.109Z,998.3
2018-03-24T09:18:02.561Z,998.3
2018-03-24T09:19:04.992Z,998.3
2018-03-24T09:20:07.773Z,998.2
2018-03-24T09:21:10.195Z,998.3
2018-03-24T09:22:13.015Z,998.3
2018-03-24T09:23:15.412Z,998.2
2018-03-24T09:24:17.850Z,998.3
2018-03-24T09:25:20.557Z,998.3
2018-03-24T09:26:22.983Z,998.2
2018-03-24T09:27:25.898Z,998.3
2018-03-24T09:28:28.625Z,998.3
2018-03-24T09:29:31.060Z,998.2
2018-03-24T09:30:33.564Z,998.3
2018-03-24T09:31:35.996Z,998.3
2018-03-24T09:32:38.428Z,998.2
2018-03-24T09:33:40.866Z,998.3
2018-03-24T09:34:43.299Z,998.3
2018-03-24T09:35:45.874Z,998.3
2018-03-24T09:36:48.301Z,998.3
2018-03-24T09:37:50.738Z,998.3
2018-03-24T09:38:53.463Z,998.3
2018-03-24T09:39:55.896Z,998.3
2018-03-24T09:40:59.235Z,998.3
2018-03-24T09:42:01.690Z,998.3
2018-03-24T09:43:04.115Z,998.3
2018-03-24T09:44:06.826Z,998.3
2018-03-24T09:45:09.344Z,998.3
2018-03-24T09:46:11.775Z,998.3
2018-03-24T09:47:14.524Z,998.3
2018-03-24T09:48:17.251Z,998.3
2018-03-24T09:49:19.695Z,998.3
2018-03-24T09:50:22.163Z,998.3
2018-03-24T09:51:24.605Z,998.3
2018-03-24T09:52:27.047Z,998.2
2018-03-24T09:53:29.756Z,998.3
2018-03-24T09:54:32.193Z,998.2
2018-03-24T09:55:34.731Z,998.2
2018-03-24T09:56:37.161Z,998.3
2018-03-24T09:57:39.895Z,998.2
2018-03-24T09:58:42.331Z,998.2
2018-03-24T09:59:44.763Z,998.1
2018-03-24T10:00:47.206Z,998.2
2018-03-24T10:01:49.929Z,998.2
2018-03-24T10:02:52.367Z,998.2
2018-03-24T10:03:54.795Z,998.3
2018-03-24T10:04:57.242Z,998.2
2018-03-24T10:05:59.667Z,998.3
2018-03-24T10:07:02.108Z,998.2
2018-03-24T10:08:04.843Z,998.2
2018-03-24T10:09:07.276Z,998.2
2018-03-24T10:10:09.703Z,998.2
2018-03-24T10:11:12.146Z,998.2
2018-03-24T10:12:14.578Z,998.2
2018-03-24T10:13:17.025Z,998.2
2018-03-24T10:14:20.036Z,998.3
2018-03-24T10:15:22.478Z,998.3
2018-03-24T10:16:24.916Z,998.2
2018-03-24T10:17:27.685Z,998.2
2018-03-24T10:18:30.120Z,998.2
2018-03-24T10:19:32.571Z,998.2
2018-03-24T10:20:35.142Z,998.2
2018-03-24T10:21:37.858Z,998.2
2018-03-24T10:22:40.284Z,998.2
2018-03-24T10:23:42.830Z,998.2
2018-03-24T10:24:45.548Z,998.2
2018-03-24T10:25:48.849Z,998.2
2018-03-24T10:26:51.292Z,998.2
2018-03-24T10:27:54.010Z,998.2
2018-03-24T10:28:56.600Z,998.1
2018-03-24T10:29:59.314Z,998.2
2018-03-24T10:31:02.161Z,998.2
2018-03-24T10:32:04.900Z,998.3
2018-03-24T10:33:07.339Z,998.2
2018-03-24T10:34:09.783Z,998.2
2018-03-24T10:35:12.212Z,998.2
2018-03-24T10:36:14.660Z,998.2
2018-03-24T10:37:17.098Z,998.1
2018-03-24T10:38:19.888Z,998.2
2018-03-24T10:39:22.366Z,998.2
2018-03-24T10:40:24.804Z,998.2
2018-03-24T10:41:27.548Z,998.2
2018-03-24T10:42:29.983Z,998.2
2018-03-24T10:43:32.414Z,998.2
2018-03-24T10:44:34.845Z,998.2
2018-03-24T10:45:37.282Z,998.2
2018-03-24T10:46:39.781Z,998.2
2018-03-24T10:47:42.503Z,998.1
2018-03-24T10:48:44.947Z,998.1
2018-03-24T10:49:47.370Z,998.1
2018-03-24T10:50:49.812Z,998.1
2018-03-24T10:51:52.544Z,998.1
2018-03-24T10:52:55.013Z,998.1
2018-03-24T10:53:57.515Z,998.1
2018-03-24T10:54:59.949Z,998
2018-03-24T10:56:02.384Z,998
2018-03-24T10:57:05.180Z,998
2018-03-24T10:58:07.776Z,998
2018-03-24T10:59:10.199Z,998
2018-03-24T11:00:12.766Z,998.1
2018-03-24T11:01:15.206Z,998.1
2018-03-24T11:02:17.643Z,998
2018-03-24T11:03:20.080Z,998
2018-03-24T11:04:22.524Z,998
2018-03-24T11:05:24.963Z,998
2018-03-24T11:06:27.416Z,998
2018-03-24T11:07:29.863Z,998
2018-03-24T11:08:32.286Z,998
2018-03-24T11:09:34.725Z,998
2018-03-24T11:10:37.679Z,998
2018-03-24T11:11:40.113Z,998
2018-03-24T11:12:42.547Z,998
2018-03-24T11:13:44.970Z,998
2018-03-24T11:14:47.428Z,998
2018-03-24T11:15:50.172Z,998
2018-03-24T11:16:52.608Z,998
2018-03-24T11:17:55.052Z,998
2018-03-24T11:18:57.570Z,998
2018-03-24T11:20:00.002Z,998.1
2018-03-24T11:21:02.453Z,998
2018-03-24T11:22:04.891Z,998.1
2018-03-24T11:23:07.606Z,998.1
2018-03-24T11:24:10.051Z,998.2
2018-03-24T11:25:12.487Z,998.1
2018-03-24T11:26:14.940Z,998
2018-03-24T11:27:17.372Z,998
2018-03-24T11:28:19.813Z,998
2018-03-24T11:29:22.825Z,998.1
2018-03-24T11:30:25.262Z,998.1
2018-03-24T11:31:27.697Z,998.1
2018-03-24T11:32:30.148Z,998
2018-03-24T11:33:32.586Z,998.1
2018-03-24T11:34:35.013Z,998.1
2018-03-24T11:35:37.457Z,998.1
2018-03-24T11:36:40.788Z,998
2018-03-24T11:37:43.513Z,998
2018-03-24T11:38:45.959Z,998
2018-03-24T11:39:48.389Z,998
2018-03-24T11:40:50.824Z,998
2018-03-24T11:41:53.495Z,998
2018-03-24T11:42:55.924Z,998
2018-03-24T11:43:58.368Z,998
2018-03-24T11:45:00.844Z,998
2018-03-24T11:46:04.051Z,998.1
2018-03-24T11:47:06.500Z,998.1
2018-03-24T11:48:09.245Z,998.1
2018-03-24T11:49:11.987Z,998
2018-03-24T11:50:14.473Z,998.1
2018-03-24T11:51:16.862Z,998.1
2018-03-24T11:52:19.299Z,998.1
2018-03-24T11:53:21.731Z,998.1
2018-03-24T11:54:24.164Z,998
2018-03-24T11:55:26.598Z,998
2018-03-24T11:56:29.055Z,998
2018-03-24T11:57:31.783Z,998
2018-03-24T11:58:34.209Z,998
2018-03-24T11:59:36.930Z,998
2018-03-24T12:00:39.655Z,998
2018-03-24T12:01:42.309Z,998
2018-03-24T12:02:44.747Z,998
2018-03-24T12:03:47.188Z,998
2018-03-24T12:04:49.620Z,997.9
2018-03-24T12:05:52.155Z,997.9
2018-03-24T12:06:54.601Z,998
2018-03-24T12:07:57.324Z,998
2018-03-24T12:09:00.061Z,998
2018-03-24T12:10:02.524Z,998
2018-03-24T12:11:04.956Z,998
2018-03-24T12:12:07.687Z,998
2018-03-24T12:13:10.413Z,998
2018-03-24T12:14:13.158Z,998
2018-03-24T12:15:15.596Z,998
2018-03-24T12:16:18.356Z,998
2018-03-24T12:17:20.857Z,998
2018-03-24T12:18:23.300Z,998
2018-03-24T12:19:25.795Z,998
2018-03-24T12:20:28.189Z,998
2018-03-24T12:21:30.725Z,998
2018-03-24T12:22:33.162Z,997.9
2018-03-24T12:23:35.968Z,997.9
2018-03-24T12:24:38.690Z,998
2018-03-24T12:25:41.134Z,998
2018-03-24T12:26:43.580Z,998
2018-03-24T12:27:46.106Z,997.9
2018-03-24T12:28:48.549Z,998
2018-03-24T12:29:50.984Z,997.9
2018-03-24T12:30:53.635Z,998
2018-03-24T12:31:56.078Z,998.1
2018-03-24T12:32:58.534Z,998
2018-03-24T12:34:01.395Z,998
2018-03-24T12:35:03.832Z,998
2018-03-24T12:36:06.279Z,998
2018-03-24T12:37:08.724Z,998
2018-03-24T12:38:11.751Z,998
2018-03-24T12:39:14.774Z,998
2018-03-24T12:40:17.205Z,998
2018-03-24T12:41:19.728Z,998
2018-03-24T12:42:22.456Z,998
2018-03-24T12:43:24.904Z,998
2018-03-24T12:44:27.337Z,998
2018-03-24T12:45:29.790Z,997.9
2018-03-24T12:46:32.520Z,998
2018-03-24T12:47:34.961Z,998
2018-03-24T12:48:37.407Z,997.9
2018-03-24T12:49:40.292Z,997.9
2018-03-24T12:50:43.029Z,998
2018-03-24T12:51:45.483Z,998
2018-03-24T12:52:47.928Z,998
2018-03-24T12:53:50.383Z,997.9
2018-03-24T12:54:52.822Z,997.9
2018-03-24T12:55:55.274Z,997.8
2018-03-24T12:56:57.855Z,997.9
2018-03-24T12:58:00.288Z,997.9
2018-03-24T12:59:02.737Z,997.9
2018-03-24T13:00:05.277Z,997.9
2018-03-24T13:01:07.714Z,997.9
2018-03-24T13:02:10.161Z,997.9
2018-03-24T13:03:13.045Z,997.8
2018-03-24T13:04:15.489Z,997.8
2018-03-24T13:05:18.254Z,997.8
2018-03-24T13:06:20.707Z,997.8
2018-03-24T13:07:23.347Z,997.8
2018-03-24T13:08:26.515Z,997.8
2018-03-24T13:09:28.956Z,997.9
2018-03-24T13:10:31.400Z,997.8
2018-03-24T13:11:33.898Z,997.8
2018-03-24T13:12:36.623Z,997.8
2018-03-24T13:13:39.064Z,997.8
2018-03-24T13:14:41.564Z,997.9
2018-03-24T13:15:44.072Z,997.9
2018-03-24T13:16:46.486Z,997.9
2018-03-24T13:17:48.931Z,997.9
2018-03-24T13:18:51.671Z,997.9
2018-03-24T13:19:54.128Z,997.9
2018-03-24T13:20:56.578Z,997.9
2018-03-24T13:21:59.020Z,997.8
2018-03-24T13:23:01.470Z,997.9
2018-03-24T13:24:03.911Z,997.8
2018-03-24T13:25:06.355Z,997.8
2018-03-24T13:26:08.797Z,997.8
2018-03-24T13:27:11.238Z,997.7
2018-03-24T13:28:14.005Z,997.8
2018-03-24T13:29:16.819Z,997.8
2018-03-24T13:30:19.269Z,997.8